Time;durP1;ratioP1;P1;durP2;ratioP2;P2;SDS_P1;SDS_P2;PMS_P1;PMS_P2;Temp;Humidity;BMP_temperature;BMP_pressure;BME280_temperature;BME280_humidity;BME280_pressure;Samples;Min_cycle;Max_cycle;Signal;HPM_P1;HPM_P2
2023/07/09 00:02:37;;;;;;;;;;;23.80;99.90;;;;;;8353667;28;20296;-73
2023/07/09 00:06:39;;;;;;;;;;;23.70;99.90;;;;;;8361902;28;19925;-72
2023/07/09 00:10:41;;;;;;;;;;;23.60;99.90;;;;;;8355458;28;19993;-72
2023/07/09 00:14:43;;;;;;;;;;;23.50;99.90;;;;;;8378233;28;19932;-73
2023/07/09 00:18:44;;;;;;;;;;;23.50;99.90;;;;;;8343062;28;19932;-72
2023/07/09 00:22:51;;;;;;;;;;;23.40;99.90;;;;;;8348921;28;19929;-72
2023/07/09 00:26:53;;;;;;;;;;;23.40;99.90;;;;;;8330246;28;19933;-72
2023/07/09 00:30:55;;;;;;;;;;;23.30;99.90;;;;;;8333060;28;19984;-72
2023/07/09 00:34:57;;;;;;;;;;;23.30;99.90;;;;;;8339272;28;19931;-72
2023/07/09 00:39:05;;;;;;;;;;;23.20;99.90;;;;;;8351945;28;19930;-72
2023/07/09 00:43:10;;;;;;;;;;;23.20;99.90;;;;;;8344662;28;19929;-72
2023/07/09 00:47:18;;;;;;;;;;;23.10;99.90;;;;;;8343575;28;19987;-72
2023/07/09 00:51:21;;;;;;;;;;;23.10;99.90;;;;;;8338932;28;19929;-72
2023/07/09 00:55:25;;;;;;;;;;;23.00;99.90;;;;;;8351707;28;19929;-72
2023/07/09 01:04:31;;;;;;;;;;;23.00;99.90;;;;;;8312089;28;20276;-72
2023/07/09 01:08:34;;;;;;;;;;;22.90;99.90;;;;;;8326593;28;19979;-73
2023/07/09 01:12:36;;;;;;;;;;;22.80;99.90;;;;;;8336085;28;19924;-72
2023/07/09 01:16:39;;;;;;;;;;;22.90;99.90;;;;;;8318766;28;19924;-72
2023/07/09 01:20:41;;;;;;;;;;;22.80;99.90;;;;;;8347916;28;19925;-72
2023/07/09 01:24:52;;;;;;;;;;;22.80;99.90;;;;;;8338092;28;19932;-72
2023/07/09 01:28:54;;;;;;;;;;;22.80;99.90;;;;;;8356795;28;19940;-73
2023/07/09 01:32:57;;;;;;;;;;;22.80;99.90;;;;;;8354884;28;19924;-72
2023/07/09 01:36:58;;;;;;;;;;;22.80;99.90;;;;;;8364221;28;19933;-72
2023/07/09 01:41:00;;;;;;;;;;;22.80;99.90;;;;;;8340498;28;19925;-72
2023/07/09 01:45:04;;;;;;;;;;;22.80;99.90;;;;;;8357987;28;19956;-72
2023/07/09 01:49:07;;;;;;;;;;;22.80;99.90;;;;;;8357398;28;20368;-72
2023/07/09 01:53:10;;;;;;;;;;;22.80;99.90;;;;;;8348560;28;19995;-72
2023/07/09 01:57:22;;;;;;;;;;;22.80;99.90;;;;;;8342041;28;19929;-72
2023/07/09 02:01:25;;;;;;;;;;;22.70;99.90;;;;;;8355860;28;19925;-72
2023/07/09 02:05:29;;;;;;;;;;;22.70;99.90;;;;;;8372623;28;19928;-72
2023/07/09 02:09:30;;;;;;;;;;;22.60;99.90;;;;;;8368002;28;20019;-72
2023/07/09 02:13:32;;;;;;;;;;;22.60;99.90;;;;;;8399691;28;19936;-72
2023/07/09 02:17:34;;;;;;;;;;;22.50;99.90;;;;;;8380147;28;19929;-72
2023/07/09 02:21:35;;;;;;;;;;;22.50;99.90;;;;;;8369367;28;20371;-72
2023/07/09 02:25:37;;;;;;;;;;;22.50;99.90;;;;;;8349545;28;20399;-72
2023/07/09 02:29:39;;;;;;;;;;;22.40;99.90;;;;;;8371821;28;19979;-72
2023/07/09 02:33:40;;;;;;;;;;;22.40;99.90;;;;;;8375957;28;19978;-72
2023/07/09 02:37:42;;;;;;;;;;;22.30;99.90;;;;;;8358344;28;19929;-72
2023/07/09 02:41:44;;;;;;;;;;;22.30;99.90;;;;;;8350777;28;19957;-72
2023/07/09 02:45:45;;;;;;;;;;;22.20;99.90;;;;;;8384825;28;19925;-72
2023/07/09 02:49:47;;;;;;;;;;;22.20;99.90;;;;;;8371001;28;19931;-72
2023/07/09 02:53:49;;;;;;;;;;;22.20;99.90;;;;;;8357786;28;20335;-72
2023/07/09 02:57:50;;;;;;;;;;;22.10;99.90;;;;;;8380262;28;20368;-72
2023/07/09 03:01:52;;;;;;;;;;;22.10;99.90;;;;;;8366921;28;19928;-72
2023/07/09 03:05:54;;;;;;;;;;;22.10;99.90;;;;;;8360493;28;19936;-72
2023/07/09 03:09:56;;;;;;;;;;;22.00;99.90;;;;;;8367922;28;20380;-72
2023/07/09 03:13:58;;;;;;;;;;;22.00;99.90;;;;;;8361992;28;19929;-72
2023/07/09 03:18:00;;;;;;;;;;;22.00;99.90;;;;;;8346745;28;19936;-72
2023/07/09 03:22:02;;;;;;;;;;;21.90;99.90;;;;;;8367220;28;19991;-72
2023/07/09 03:26:03;;;;;;;;;;;21.80;99.90;;;;;;8360262;28;19932;-72
2023/07/09 03:30:06;;;;;;;;;;;21.80;99.90;;;;;;8377398;28;19932;-72
2023/07/09 03:34:08;;;;;;;;;;;21.80;99.90;;;;;;8364374;28;19933;-72
2023/07/09 03:38:10;;;;;;;;;;;21.70;99.90;;;;;;8379322;28;19991;-73
2023/07/09 03:42:12;;;;;;;;;;;21.70;99.90;;;;;;8339071;28;20343;-72
2023/07/09 03:46:14;;;;;;;;;;;21.70;99.90;;;;;;8374285;28;20042;-72
2023/07/09 03:50:16;;;;;;;;;;;21.70;99.90;;;;;;8357610;28;20387;-72
2023/07/09 03:54:17;;;;;;;;;;;21.60;99.90;;;;;;8360870;28;19925;-72
2023/07/09 03:58:19;;;;;;;;;;;21.60;99.90;;;;;;8359461;28;19929;-72
2023/07/09 04:02:21;;;;;;;;;;;21.60;99.90;;;;;;8358292;28;19925;-72
2023/07/09 04:06:22;;;;;;;;;;;21.60;99.90;;;;;;8353542;28;19935;-72
2023/07/09 04:10:24;;;;;;;;;;;21.60;99.90;;;;;;8364622;28;19940;-72
2023/07/09 04:14:25;;;;;;;;;;;21.70;99.90;;;;;;8359340;28;19931;-72
2023/07/09 04:18:27;;;;;;;;;;;21.60;99.90;;;;;;8379697;28;19932;-72
2023/07/09 04:22:29;;;;;;;;;;;21.70;99.90;;;;;;8346900;28;19945;-72
2023/07/09 04:26:30;;;;;;;;;;;21.70;99.90;;;;;;8362055;28;19925;-72
2023/07/09 04:30:32;;;;;;;;;;;21.70;99.90;;;;;;8348034;28;20551;-72
2023/07/09 04:34:34;;;;;;;;;;;21.80;99.90;;;;;;8352576;28;19933;-72
2023/07/09 04:38:35;;;;;;;;;;;21.80;99.90;;;;;;8360421;28;19924;-72
2023/07/09 04:42:39;;;;;;;;;;;21.80;99.90;;;;;;8354028;28;19924;-72
2023/07/09 04:46:41;;;;;;;;;;;21.80;99.90;;;;;;8389454;28;19970;-72
2023/07/09 04:50:42;;;;;;;;;;;21.80;99.90;;;;;;8385965;28;20348;-72
2023/07/09 04:54:44;;;;;;;;;;;21.90;99.90;;;;;;8352106;28;19978;-72
2023/07/09 04:58:46;;;;;;;;;;;21.90;99.90;;;;;;8376883;28;19925;-72
2023/07/09 05:02:49;;;;;;;;;;;22.00;99.90;;;;;;8361528;28;19931;-72
2023/07/09 05:06:50;;;;;;;;;;;22.00;99.90;;;;;;8373375;28;19931;-72
2023/07/09 05:10:52;;;;;;;;;;;22.00;99.90;;;;;;8365733;28;19932;-72
2023/07/09 05:14:56;;;;;;;;;;;22.10;99.90;;;;;;8381435;28;19964;-72
2023/07/09 05:18:57;;;;;;;;;;;22.20;99.90;;;;;;8357449;28;20680;-72
2023/07/09 05:22:59;;;;;;;;;;;22.20;99.90;;;;;;8361236;28;19971;-72
2023/07/09 05:27:01;;;;;;;;;;;22.30;99.90;;;;;;8377644;28;20411;-72
2023/07/09 05:31:04;;;;;;;;;;;22.40;99.90;;;;;;8370552;28;19929;-72
2023/07/09 05:35:06;;;;;;;;;;;22.50;99.90;;;;;;8344223;28;20310;-72
2023/07/09 05:39:08;;;;;;;;;;;22.60;99.90;;;;;;8360486;28;19932;-72
2023/07/09 05:43:11;;;;;;;;;;;22.70;99.90;;;;;;8357179;28;19929;-72
2023/07/09 05:47:12;;;;;;;;;;;22.90;99.90;;;;;;8370303;28;19947;-72
2023/07/09 05:51:14;;;;;;;;;;;23.00;99.90;;;;;;8353195;28;19931;-72
2023/07/09 05:55:16;;;;;;;;;;;23.20;99.90;;;;;;8353970;28;19925;-72
2023/07/09 05:59:18;;;;;;;;;;;23.40;99.90;;;;;;8365010;28;19924;-72
2023/07/09 06:03:21;;;;;;;;;;;23.50;99.90;;;;;;8386201;28;19933;-72
2023/07/09 06:07:23;;;;;;;;;;;23.60;99.90;;;;;;8369181;28;19926;-73
2023/07/09 06:11:25;;;;;;;;;;;23.80;99.90;;;;;;8353689;28;19936;-73
2023/07/09 06:15:27;;;;;;;;;;;23.90;99.90;;;;;;8355053;28;19929;-72
2023/07/09 06:19:29;;;;;;;;;;;24.00;99.90;;;;;;8354607;28;20014;-72
2023/07/09 06:23:30;;;;;;;;;;;24.00;99.90;;;;;;8359650;28;20342;-72
2023/07/09 06:27:32;;;;;;;;;;;24.20;99.90;;;;;;8361159;28;19925;-72
2023/07/09 06:31:35;;;;;;;;;;;24.30;99.90;;;;;;8353435;28;20342;-72
2023/07/09 06:35:38;;;;;;;;;;;24.40;99.90;;;;;;8366598;28;20396;-73
2023/07/09 06:39:39;;;;;;;;;;;24.50;99.90;;;;;;8369045;28;19924;-73
2023/07/09 06:43:41;;;;;;;;;;;24.70;99.90;;;;;;8357019;28;19929;-73
2023/07/09 06:47:43;;;;;;;;;;;24.70;99.90;;;;;;8364641;28;19924;-72
2023/07/09 06:51:45;;;;;;;;;;;24.80;99.90;;;;;;8367028;28;19925;-72
2023/07/09 06:55:48;;;;;;;;;;;25.00;99.90;;;;;;8367380;28;19931;-72
2023/07/09 06:59:50;;;;;;;;;;;25.10;99.90;;;;;;8360795;28;19971;-73
2023/07/09 07:03:52;;;;;;;;;;;25.20;99.90;;;;;;8347707;28;19924;-72
2023/07/09 07:07:54;;;;;;;;;;;25.30;99.90;;;;;;8368245;28;19936;-72
2023/07/09 07:11:56;;;;;;;;;;;25.50;99.90;;;;;;8352762;28;19924;-72
2023/07/09 07:15:58;;;;;;;;;;;25.50;99.90;;;;;;8368116;28;19947;-72
2023/07/09 07:20:00;;;;;;;;;;;25.60;99.90;;;;;;8387691;28;19925;-72
2023/07/09 07:24:01;;;;;;;;;;;25.70;99.90;;;;;;8367893;28;19933;-73
2023/07/09 07:28:03;;;;;;;;;;;25.90;99.90;;;;;;8349996;28;19929;-72
2023/07/09 07:32:05;;;;;;;;;;;25.90;99.90;;;;;;8374365;28;20675;-73
2023/07/09 07:36:10;;;;;;;;;;;26.00;99.90;;;;;;8368152;28;19924;-73
2023/07/09 07:40:15;;;;;;;;;;;26.20;99.90;;;;;;8377089;28;19932;-73
2023/07/09 07:44:17;;;;;;;;;;;26.30;99.90;;;;;;8382463;28;19925;-73
2023/07/09 07:48:19;;;;;;;;;;;26.40;99.90;;;;;;8372796;28;19965;-73
2023/07/09 07:52:21;;;;;;;;;;;26.60;99.90;;;;;;8363778;28;19925;-73
2023/07/09 07:56:23;;;;;;;;;;;26.70;99.90;;;;;;8369381;28;19972;-72
2023/07/09 08:00:24;;;;;;;;;;;26.80;99.90;;;;;;8369563;28;19955;-72
2023/07/09 08:04:26;;;;;;;;;;;26.90;99.90;;;;;;8369760;28;19924;-72
2023/07/09 08:08:28;;;;;;;;;;;27.00;99.90;;;;;;8344767;28;19982;-73
2023/07/09 08:12:30;;;;;;;;;;;27.10;99.90;;;;;;8334462;28;19971;-72
2023/07/09 08:26:41;;;;;;;;;;;27.30;99.90;;;;;;8341963;28;20401;-73
2023/07/09 08:30:43;;;;;;;;;;;27.40;99.90;;;;;;8356104;28;20580;-72
2023/07/09 08:34:45;;;;;;;;;;;27.40;99.90;;;;;;8338346;28;19933;-72
2023/07/09 08:39:06;;;;;;;;;;;27.40;99.90;;;;;;8341142;28;19964;-72
2023/07/09 08:43:13;;;;;;;;;;;27.50;99.90;;;;;;8341364;28;19929;-72
2023/07/09 08:47:37;;;;;;;;;;;27.60;99.90;;;;;;8345080;28;19929;-73
2023/07/09 08:51:41;;;;;;;;;;;27.60;99.90;;;;;;8354956;28;19928;-73
2023/07/09 08:55:43;;;;;;;;;;;27.70;99.90;;;;;;8343773;28;19924;-72
2023/07/09 08:59:45;;;;;;;;;;;27.70;99.90;;;;;;8328678;28;19928;-72
2023/07/09 09:03:51;;;;;;;;;;;27.80;99.90;;;;;;8344252;28;19924;-73
2023/07/09 09:08:00;;;;;;;;;;;27.80;99.90;;;;;;8344247;28;19925;-73
2023/07/09 09:12:33;;;;;;;;;;;27.90;99.90;;;;;;8333433;28;19940;-72
2023/07/09 09:16:38;;;;;;;;;;;27.90;99.90;;;;;;8334597;28;19933;-73
2023/07/09 09:20:40;;;;;;;;;;;28.00;99.90;;;;;;8335861;28;19967;-72
2023/07/09 09:25:00;;;;;;;;;;;28.10;99.90;;;;;;8337432;28;20389;-73
2023/07/09 09:29:10;;;;;;;;;;;28.20;99.90;;;;;;8335103;28;20371;-73
2023/07/09 09:33:12;;;;;;;;;;;28.30;99.90;;;;;;8346558;28;20387;-73
2023/07/09 09:37:21;;;;;;;;;;;28.40;99.90;;;;;;8342418;28;19932;-73
2023/07/09 09:41:24;;;;;;;;;;;28.50;99.90;;;;;;8328855;28;19932;-72
2023/07/09 09:45:28;;;;;;;;;;;28.60;99.90;;;;;;8329198;28;19933;-73
2023/07/09 09:49:30;;;;;;;;;;;28.70;99.90;;;;;;8334657;28;20372;-72
2023/07/09 09:53:37;;;;;;;;;;;28.80;99.90;;;;;;8348475;28;19925;-73
2023/07/09 09:57:38;;;;;;;;;;;28.80;99.90;;;;;;8336918;28;20365;-73
2023/07/09 10:01:40;;;;;;;;;;;28.90;99.90;;;;;;8343569;28;19928;-73
2023/07/09 10:05:44;;;;;;;;;;;29.00;99.90;;;;;;8338561;28;20372;-73
2023/07/09 10:09:47;;;;;;;;;;;29.10;99.90;;;;;;8349484;28;19944;-72
2023/07/09 10:13:50;;;;;;;;;;;29.20;99.90;;;;;;8340054;28;19924;-72
2023/07/09 10:17:56;;;;;;;;;;;29.20;99.90;;;;;;8342422;28;20435;-72
2023/07/09 10:22:05;;;;;;;;;;;29.40;99.90;;;;;;8348949;28;19932;-72
2023/07/09 10:26:26;;;;;;;;;;;29.50;99.90;;;;;;8336173;28;19933;-73
2023/07/09 10:30:42;;;;;;;;;;;29.60;99.90;;;;;;8335368;28;19933;-72
2023/07/09 10:35:10;;;;;;;;;;;29.70;99.90;;;;;;8334170;28;20023;-73
2023/07/09 10:39:14;;;;;;;;;;;29.80;99.90;;;;;;8313092;28;20002;-72
2023/07/09 10:43:18;;;;;;;;;;;29.90;99.90;;;;;;8326465;28;19932;-73
2023/07/09 10:47:40;;;;;;;;;;;29.80;99.90;;;;;;8331085;28;19929;-73
2023/07/09 10:51:54;;;;;;;;;;;29.80;99.90;;;;;;8314156;28;19933;-73
2023/07/09 10:56:02;;;;;;;;;;;29.80;99.90;;;;;;8333600;28;19933;-73
2023/07/09 11:00:06;;;;;;;;;;;29.80;99.90;;;;;;8326101;28;20281;-73
2023/07/09 11:04:26;;;;;;;;;;;29.70;99.90;;;;;;8329935;28;19940;-72
2023/07/09 11:08:35;;;;;;;;;;;29.70;99.90;;;;;;8310630;28;19929;-72
2023/07/09 11:12:39;;;;;;;;;;;29.70;99.90;;;;;;8331093;28;19971;-72
2023/07/09 11:16:42;;;;;;;;;;;29.80;99.90;;;;;;8336003;28;19937;-72
2023/07/09 11:20:45;;;;;;;;;;;29.90;99.90;;;;;;8348330;28;19933;-72
2023/07/09 11:25:04;;;;;;;;;;;30.00;99.90;;;;;;8339960;28;19941;-73
2023/07/09 11:29:16;;;;;;;;;;;30.00;99.90;;;;;;8342589;28;19952;-73
2023/07/09 11:33:20;;;;;;;;;;;30.00;99.90;;;;;;8330339;28;19933;-73
2023/07/09 11:37:26;;;;;;;;;;;30.10;99.90;;;;;;8333610;28;19952;-73
2023/07/09 11:41:33;;;;;;;;;;;30.10;99.90;;;;;;8337640;28;19929;-73
2023/07/09 11:45:35;;;;;;;;;;;30.10;99.90;;;;;;8334421;28;19929;-73
2023/07/09 11:49:58;;;;;;;;;;;30.10;99.90;;;;;;8348970;28;19928;-72
2023/07/09 11:54:00;;;;;;;;;;;30.20;99.90;;;;;;8324463;28;19929;-73
2023/07/09 11:58:03;;;;;;;;;;;30.10;99.90;;;;;;8350816;28;19944;-73
2023/07/09 12:02:06;;;;;;;;;;;30.10;99.90;;;;;;8330973;28;19929;-74
2023/07/09 12:06:17;;;;;;;;;;;30.10;99.90;;;;;;8333959;28;19933;-74
2023/07/09 12:10:25;;;;;;;;;;;30.00;99.90;;;;;;8325382;28;19932;-73
2023/07/09 12:14:27;;;;;;;;;;;30.00;99.90;;;;;;8331374;28;19932;-73
2023/07/09 12:18:29;;;;;;;;;;;29.90;99.90;;;;;;8332525;28;19944;-73
2023/07/09 12:22:31;;;;;;;;;;;29.80;99.90;;;;;;8345527;28;20368;-74
2023/07/09 12:26:33;;;;;;;;;;;29.80;99.90;;;;;;8333536;28;20350;-75
2023/07/09 12:30:34;;;;;;;;;;;29.70;99.90;;;;;;8321788;28;19925;-75
2023/07/09 12:34:36;;;;;;;;;;;29.60;99.90;;;;;;8338049;28;19929;-74
2023/07/09 12:38:41;;;;;;;;;;;29.60;99.90;;;;;;8340088;28;19925;-74
2023/07/09 12:42:43;;;;;;;;;;;29.50;99.90;;;;;;8342705;28;20650;-73
2023/07/09 12:46:45;;;;;;;;;;;29.40;99.90;;;;;;8339539;28;19940;-74
2023/07/09 12:50:51;;;;;;;;;;;29.20;99.90;;;;;;8340222;28;19987;-75
2023/07/09 12:54:56;;;;;;;;;;;29.10;99.90;;;;;;8335512;28;19925;-73
2023/07/09 12:58:58;;;;;;;;;;;29.00;99.90;;;;;;8340894;28;19936;-74
2023/07/09 13:03:00;;;;;;;;;;;28.80;99.90;;;;;;8336487;28;19925;-75
2023/07/09 13:07:02;;;;;;;;;;;28.80;99.90;;;;;;8339789;28;19979;-74
2023/07/09 13:11:13;;;;;;;;;;;28.60;99.90;;;;;;8345404;28;19936;-74
2023/07/09 13:15:34;;;;;;;;;;;28.60;99.90;;;;;;8344504;28;20348;-73
2023/07/09 13:19:35;;;;;;;;;;;28.50;99.90;;;;;;8337925;28;19936;-73
2023/07/09 13:23:37;;;;;;;;;;;28.30;99.90;;;;;;8361480;28;19928;-74
2023/07/09 13:27:39;;;;;;;;;;;28.20;99.90;;;;;;8337785;28;19928;-74
2023/07/09 13:31:41;;;;;;;;;;;28.30;99.90;;;;;;8345166;28;19925;-74
2023/07/09 13:35:43;;;;;;;;;;;28.20;99.90;;;;;;8341312;28;19931;-74
2023/07/09 13:39:45;;;;;;;;;;;28.10;99.90;;;;;;8338989;28;19925;-74
2023/07/09 13:43:47;;;;;;;;;;;28.10;99.90;;;;;;8336215;28;19975;-74
2023/07/09 13:47:50;;;;;;;;;;;28.00;99.90;;;;;;8341735;28;19979;-74
2023/07/09 13:51:55;;;;;;;;;;;27.80;99.90;;;;;;8335452;28;19998;-73
2023/07/09 13:55:57;;;;;;;;;;;27.60;99.90;;;;;;8339920;28;19929;-73
2023/07/09 13:59:59;;;;;;;;;;;27.50;99.90;;;;;;8331684;28;19971;-74
2023/07/09 14:04:00;;;;;;;;;;;27.30;99.90;;;;;;8361526;28;20288;-73
2023/07/09 14:08:02;;;;;;;;;;;27.10;99.90;;;;;;8344561;28;19936;-74
2023/07/09 14:12:04;;;;;;;;;;;26.80;99.90;;;;;;8332976;28;19928;-74
2023/07/09 14:16:06;;;;;;;;;;;26.50;99.90;;;;;;8315203;28;19929;-74
2023/07/09 14:20:10;;;;;;;;;;;26.30;99.90;;;;;;8335329;28;19952;-74
2023/07/09 14:24:23;;;;;;;;;;;26.10;99.90;;;;;;8344102;28;20912;-74
2023/07/09 14:28:24;;;;;;;;;;;26.00;99.90;;;;;;8340449;28;20402;-74
2023/07/09 14:32:26;;;;;;;;;;;25.80;99.90;;;;;;8342233;28;19931;-74
2023/07/09 14:36:28;;;;;;;;;;;25.60;99.90;;;;;;8345680;28;20322;-74
2023/07/09 14:40:29;;;;;;;;;;;25.50;99.90;;;;;;8357390;28;19933;-73
2023/07/09 14:44:31;;;;;;;;;;;25.20;99.90;;;;;;8335746;28;19929;-74
2023/07/09 14:48:33;;;;;;;;;;;24.50;99.90;;;;;;8332602;28;19936;-73
2023/07/09 14:52:35;;;;;;;;;;;23.70;99.90;;;;;;8329475;28;19925;-72
2023/07/09 14:56:36;;;;;;;;;;;23.10;99.90;;;;;;8327514;28;20537;-71
2023/07/09 15:00:40;;;;;;;;;;;22.80;99.90;;;;;;8328262;28;19925;-71
2023/07/09 15:04:42;;;;;;;;;;;22.70;99.90;;;;;;8331672;28;19975;-71
2023/07/09 15:08:44;;;;;;;;;;;22.70;99.90;;;;;;8328011;28;19929;-72
2023/07/09 15:12:46;;;;;;;;;;;22.90;99.90;;;;;;8328499;28;19952;-71
2023/07/09 15:16:49;;;;;;;;;;;23.10;99.90;;;;;;8339164;28;19928;-72
2023/07/09 15:20:54;;;;;;;;;;;23.30;99.90;;;;;;8340149;28;19991;-72
2023/07/09 15:24:56;;;;;;;;;;;23.50;99.90;;;;;;8329435;28;19995;-71
2023/07/09 15:28:57;;;;;;;;;;;23.60;99.90;;;;;;8327306;28;19939;-71
2023/07/09 15:33:00;;;;;;;;;;;23.60;99.90;;;;;;8337464;28;19986;-72
2023/07/09 15:37:11;;;;;;;;;;;23.60;99.90;;;;;;8353033;28;19929;-72
2023/07/09 15:41:14;;;;;;;;;;;23.60;99.90;;;;;;8341783;28;20319;-72
2023/07/09 15:45:17;;;;;;;;;;;23.50;99.90;;;;;;8335857;28;19924;-72
2023/07/09 15:49:18;;;;;;;;;;;23.50;99.90;;;;;;8343553;28;19925;-72
2023/07/09 15:53:21;;;;;;;;;;;23.50;99.90;;;;;;8329566;28;19926;-71
2023/07/09 15:57:23;;;;;;;;;;;23.50;99.90;;;;;;8334018;28;19932;-71
2023/07/09 16:01:30;;;;;;;;;;;23.50;99.90;;;;;;8334107;28;19936;-71
2023/07/09 16:05:32;;;;;;;;;;;23.50;99.90;;;;;;8340834;28;20442;-72
2023/07/09 16:09:33;;;;;;;;;;;23.50;99.90;;;;;;8328786;28;19933;-72
2023/07/09 16:13:35;;;;;;;;;;;23.60;99.90;;;;;;8325250;28;19934;-72
2023/07/09 16:17:37;;;;;;;;;;;23.60;99.90;;;;;;8333749;28;20019;-72
2023/07/09 16:21:39;;;;;;;;;;;23.70;99.90;;;;;;8324020;28;19979;-72
2023/07/09 16:25:41;;;;;;;;;;;23.80;99.90;;;;;;8346815;28;19926;-72
2023/07/09 16:29:42;;;;;;;;;;;23.90;99.90;;;;;;8322834;28;20276;-72
2023/07/09 16:33:46;;;;;;;;;;;24.10;99.90;;;;;;8353488;28;19925;-72
2023/07/09 16:37:49;;;;;;;;;;;24.30;99.90;;;;;;8335638;28;19933;-73
2023/07/09 16:41:51;;;;;;;;;;;24.40;99.90;;;;;;8351847;28;19933;-72
2023/07/09 16:45:53;;;;;;;;;;;24.40;99.90;;;;;;8338366;28;19947;-72
2023/07/09 16:49:54;;;;;;;;;;;24.40;99.90;;;;;;8339654;28;19935;-72
2023/07/09 16:53:58;;;;;;;;;;;24.30;99.90;;;;;;8347370;28;19928;-72
2023/07/09 16:58:00;;;;;;;;;;;24.20;99.90;;;;;;8350383;28;19928;-73
2023/07/09 17:02:01;;;;;;;;;;;24.20;99.90;;;;;;8355171;28;19925;-71
2023/07/09 17:06:03;;;;;;;;;;;24.20;99.90;;;;;;8359235;28;19933;-72
2023/07/09 17:10:05;;;;;;;;;;;24.10;99.90;;;;;;8333834;28;20075;-72
2023/07/09 17:14:08;;;;;;;;;;;24.10;99.90;;;;;;8338728;28;19948;-73
2023/07/09 17:18:15;;;;;;;;;;;24.10;99.90;;;;;;8338245;28;19925;-73
2023/07/09 17:22:33;;;;;;;;;;;24.10;99.90;;;;;;8355469;28;19932;-72
2023/07/09 17:26:35;;;;;;;;;;;24.00;99.90;;;;;;8337117;28;19925;-71
2023/07/09 17:30:36;;;;;;;;;;;24.00;99.90;;;;;;8352818;28;19987;-72
2023/07/09 17:34:38;;;;;;;;;;;23.90;99.90;;;;;;8337788;28;20435;-73
2023/07/09 17:38:40;;;;;;;;;;;23.80;99.90;;;;;;8354123;28;19928;-72
2023/07/09 17:42:42;;;;;;;;;;;23.80;99.90;;;;;;8342711;28;19947;-71
2023/07/09 17:46:44;;;;;;;;;;;23.70;99.90;;;;;;8337699;28;19970;-71
2023/07/09 17:50:46;;;;;;;;;;;23.60;99.90;;;;;;8334129;28;19938;-73
2023/07/09 17:54:48;;;;;;;;;;;23.60;99.90;;;;;;8353229;28;19933;-73
2023/07/09 17:58:49;;;;;;;;;;;23.60;99.90;;;;;;8356334;28;19932;-72
2023/07/09 18:02:54;;;;;;;;;;;23.50;99.90;;;;;;8340216;28;19935;-72
2023/07/09 18:06:55;;;;;;;;;;;23.40;99.90;;;;;;8334590;28;19976;-72
2023/07/09 18:10:58;;;;;;;;;;;23.30;99.90;;;;;;8341205;28;19994;-73
2023/07/09 18:14:59;;;;;;;;;;;23.30;99.90;;;;;;8327939;28;19925;-71
2023/07/09 18:19:03;;;;;;;;;;;23.20;99.90;;;;;;8336912;28;19959;-72
2023/07/09 18:23:05;;;;;;;;;;;23.10;99.90;;;;;;8352707;28;19936;-73
2023/07/09 18:27:11;;;;;;;;;;;23.00;99.90;;;;;;8332355;28;19925;-72
2023/07/09 18:31:13;;;;;;;;;;;23.00;99.90;;;;;;8339946;28;19933;-73
2023/07/09 18:35:23;;;;;;;;;;;23.10;99.90;;;;;;8332881;28;20002;-72
2023/07/09 18:39:25;;;;;;;;;;;23.10;99.90;;;;;;8329991;28;19932;-72
2023/07/09 18:43:26;;;;;;;;;;;23.10;99.90;;;;;;8358621;28;19925;-72
2023/07/09 18:47:32;;;;;;;;;;;23.10;99.90;;;;;;8342206;28;20568;-72
2023/07/09 18:51:35;;;;;;;;;;;23.10;99.90;;;;;;8335919;28;19935;-72
2023/07/09 18:55:37;;;;;;;;;;;23.10;99.90;;;;;;8339850;28;20381;-72
2023/07/09 18:59:39;;;;;;;;;;;23.10;99.90;;;;;;8337373;28;19952;-72
2023/07/09 19:03:41;;;;;;;;;;;23.10;99.90;;;;;;8340446;28;20294;-73
2023/07/09 19:07:43;;;;;;;;;;;23.10;99.90;;;;;;8339985;28;19928;-73
2023/07/09 19:11:45;;;;;;;;;;;23.10;99.90;;;;;;8357428;28;19925;-72
2023/07/09 19:15:47;;;;;;;;;;;23.10;99.90;;;;;;8341190;28;19925;-73
2023/07/09 19:19:49;;;;;;;;;;;23.00;99.90;;;;;;8331749;28;19933;-72
2023/07/09 19:23:51;;;;;;;;;;;23.00;99.90;;;;;;8337933;28;19925;-73
2023/07/09 19:27:53;;;;;;;;;;;22.90;99.90;;;;;;8337332;28;20276;-73
2023/07/09 19:31:56;;;;;;;;;;;22.80;99.90;;;;;;8343754;28;19969;-73
2023/07/09 19:35:58;;;;;;;;;;;22.80;99.90;;;;;;8333558;28;19929;-72
2023/07/09 19:40:00;;;;;;;;;;;22.70;99.90;;;;;;8341489;28;19979;-72
2023/07/09 19:44:01;;;;;;;;;;;22.60;99.90;;;;;;8359188;28;19932;-73
2023/07/09 19:48:03;;;;;;;;;;;22.60;99.90;;;;;;8334837;28;19925;-72
2023/07/09 19:52:10;;;;;;;;;;;22.60;99.90;;;;;;8334774;28;20388;-73
2023/07/09 19:56:12;;;;;;;;;;;22.60;99.90;;;;;;8343131;28;19929;-73
2023/07/09 20:00:14;;;;;;;;;;;22.60;99.90;;;;;;8340292;28;20624;-73
2023/07/09 20:04:16;;;;;;;;;;;22.60;99.90;;;;;;8336094;28;19936;-72
2023/07/09 20:08:19;;;;;;;;;;;22.70;99.90;;;;;;8338031;28;20040;-72
2023/07/09 20:12:23;;;;;;;;;;;22.70;99.90;;;;;;8336645;28;20360;-73
2023/07/09 20:16:26;;;;;;;;;;;22.60;99.90;;;;;;8333548;28;20010;-73
2023/07/09 20:20:27;;;;;;;;;;;22.60;99.90;;;;;;8330040;28;19925;-72
2023/07/09 20:24:29;;;;;;;;;;;22.60;99.90;;;;;;8350922;28;19932;-73
2023/07/09 20:28:31;;;;;;;;;;;22.60;99.90;;;;;;8336248;28;19990;-73
2023/07/09 20:32:34;;;;;;;;;;;22.50;99.90;;;;;;8337783;28;19925;-72
2023/07/09 20:36:35;;;;;;;;;;;22.50;99.90;;;;;;8337952;28;19971;-73
2023/07/09 20:40:37;;;;;;;;;;;22.50;99.90;;;;;;8333001;28;19941;-73
2023/07/09 20:44:40;;;;;;;;;;;22.40;99.90;;;;;;8336744;28;20377;-73
2023/07/09 20:48:42;;;;;;;;;;;22.40;99.90;;;;;;8342409;28;19925;-72
2023/07/09 20:52:44;;;;;;;;;;;22.40;99.90;;;;;;8356651;28;19939;-72
2023/07/09 20:56:46;;;;;;;;;;;22.40;99.90;;;;;;8321209;28;20307;-72
2023/07/09 21:00:49;;;;;;;;;;;22.40;99.90;;;;;;8360549;28;20375;-72
2023/07/09 21:04:51;;;;;;;;;;;22.40;99.90;;;;;;8372834;28;19996;-72
2023/07/09 21:08:53;;;;;;;;;;;22.40;99.90;;;;;;8357788;28;19947;-73
2023/07/09 21:12:54;;;;;;;;;;;22.50;99.90;;;;;;8368717;28;19925;-72
2023/07/09 21:16:57;;;;;;;;;;;22.40;99.90;;;;;;8353221;28;19929;-72
2023/07/09 21:20:59;;;;;;;;;;;22.40;99.90;;;;;;8381813;28;19975;-73
2023/07/09 21:25:02;;;;;;;;;;;22.30;99.90;;;;;;8335168;28;19924;-73
2023/07/09 21:29:04;;;;;;;;;;;22.30;99.90;;;;;;8374602;28;20299;-73
2023/07/09 21:33:10;;;;;;;;;;;22.30;99.90;;;;;;8370592;28;19928;-73
2023/07/09 21:37:17;;;;;;;;;;;22.20;99.90;;;;;;8370135;28;19928;-73
2023/07/09 21:41:19;;;;;;;;;;;22.20;99.90;;;;;;8360817;28;19929;-73
2023/07/09 21:45:23;;;;;;;;;;;22.20;99.90;;;;;;8384717;28;19932;-73
2023/07/09 21:49:28;;;;;;;;;;;22.20;99.90;;;;;;8383111;28;19936;-73
2023/07/09 21:53:30;;;;;;;;;;;22.20;99.90;;;;;;8384467;28;19933;-72
2023/07/09 21:57:52;;;;;;;;;;;22.20;99.90;;;;;;8357377;28;20550;-73
2023/07/09 22:01:57;;;;;;;;;;;22.20;99.90;;;;;;8373618;28;19928;-73
2023/07/09 22:05:58;;;;;;;;;;;22.20;99.90;;;;;;8351668;28;19978;-72
2023/07/09 22:10:00;;;;;;;;;;;22.10;99.90;;;;;;8375468;28;19928;-72
2023/07/09 22:14:08;;;;;;;;;;;22.00;99.90;;;;;;8355752;28;19982;-73
2023/07/09 22:18:13;;;;;;;;;;;21.90;99.90;;;;;;8355738;28;19933;-73
2023/07/09 22:22:15;;;;;;;;;;;21.80;99.90;;;;;;8353926;28;19928;-73
2023/07/09 22:26:19;;;;;;;;;;;21.70;99.90;;;;;;8364882;28;20204;-73
2023/07/09 22:30:22;;;;;;;;;;;21.70;99.90;;;;;;8365601;28;19932;-73
2023/07/09 22:34:24;;;;;;;;;;;21.70;99.90;;;;;;8368936;28;19933;-73
2023/07/09 22:38:25;;;;;;;;;;;21.60;99.90;;;;;;8372476;28;19978;-75
2023/07/09 22:42:27;;;;;;;;;;;21.60;99.90;;;;;;8365708;28;19925;-73
2023/07/09 22:46:29;;;;;;;;;;;21.50;99.90;;;;;;8394747;28;19924;-73
2023/07/09 22:50:32;;;;;;;;;;;21.40;99.90;;;;;;8358898;28;19935;-72
2023/07/09 22:54:34;;;;;;;;;;;21.30;99.90;;;;;;8364069;28;19933;-73
2023/07/09 22:58:35;;;;;;;;;;;21.20;99.90;;;;;;8355020;28;19935;-73
2023/07/09 23:02:38;;;;;;;;;;;21.10;99.90;;;;;;8362656;28;19956;-72
2023/07/09 23:06:40;;;;;;;;;;;21.10;99.90;;;;;;8366464;28;19925;-73
2023/07/09 23:10:41;;;;;;;;;;;21.10;99.90;;;;;;8372635;28;19932;-73
2023/07/09 23:14:43;;;;;;;;;;;21.10;99.90;;;;;;8357840;28;19948;-73
2023/07/09 23:18:45;;;;;;;;;;;21.00;99.90;;;;;;8372188;28;19994;-73
2023/07/09 23:22:47;;;;;;;;;;;20.90;99.90;;;;;;8358157;28;19994;-73
2023/07/09 23:26:50;;;;;;;;;;;20.90;99.90;;;;;;8358319;28;20030;-73
2023/07/09 23:30:51;;;;;;;;;;;20.80;99.90;;;;;;8359544;28;19932;-73
2023/07/09 23:34:53;;;;;;;;;;;20.70;99.90;;;;;;8361979;28;20375;-73
2023/07/09 23:38:55;;;;;;;;;;;20.70;99.90;;;;;;8377610;28;19925;-72
2023/07/09 23:42:58;;;;;;;;;;;20.60;99.90;;;;;;8386095;28;19933;-72
2023/07/09 23:47:00;;;;;;;;;;;20.60;99.90;;;;;;8372823;28;19925;-73
2023/07/09 23:51:04;;;;;;;;;;;20.60;99.90;;;;;;8358717;28;19932;-72